sensor_id;sensor_type;location;lat;lon;timestamp;P1;durP1;ratioP1;P2;durP2;ratioP2
6342;SDS011;3204;42.698;23.298;2024-01-06T00:00:33;139.87;;;63.50;;
6342;SDS011;3204;42.698;23.298;2024-01-06T00:02:59;133.20;;;63.40;;
6342;SDS011;3204;42.698;23.298;2024-01-06T00:05:24;138.03;;;63.30;;
6342;SDS011;3204;42.698;23.298;2024-01-06T00:07:50;137.13;;;65.00;;
6342;SDS011;3204;42.698;23.298;2024-01-06T00:10:15;129.80;;;61.40;;
6342;SDS011;3204;42.698;23.298;2024-01-06T00:12:42;131.67;;;63.63;;
6342;SDS011;3204;42.698;23.298;2024-01-06T00:15:07;135.13;;;66.77;;
6342;SDS011;3204;42.698;23.298;2024-01-06T00:17:33;135.97;;;69.77;;
6342;SDS011;3204;42.698;23.298;2024-01-06T00:19:58;145.50;;;70.80;;
6342;SDS011;3204;42.698;23.298;2024-01-06T00:22:25;147.57;;;72.33;;
6342;SDS011;3204;42.698;23.298;2024-01-06T00:24:51;129.73;;;67.63;;
6342;SDS011;3204;42.698;23.298;2024-01-06T00:27:16;136.87;;;64.67;;
6342;SDS011;3204;42.698;23.298;2024-01-06T00:29:42;135.67;;;65.77;;
6342;SDS011;3204;42.698;23.298;2024-01-06T00:32:07;134.63;;;65.43;;
6342;SDS011;3204;42.698;23.298;2024-01-06T00:34:33;134.27;;;66.50;;
6342;SDS011;3204;42.698;23.298;2024-01-06T00:36:58;135.07;;;66.77;;
6342;SDS011;3204;42.698;23.298;2024-01-06T00:39:23;130.70;;;65.93;;
6342;SDS011;3204;42.698;23.298;2024-01-06T00:41:49;133.63;;;65.93;;
6342;SDS011;3204;42.698;23.298;2024-01-06T00:44:14;138.10;;;67.47;;
6342;SDS011;3204;42.698;23.298;2024-01-06T00:46:39;138.57;;;60.13;;
6342;SDS011;3204;42.698;23.298;2024-01-06T00:49:05;118.83;;;60.20;;
6342;SDS011;3204;42.698;23.298;2024-01-06T00:51:30;128.60;;;63.17;;
6342;SDS011;3204;42.698;23.298;2024-01-06T00:53:56;125.87;;;60.03;;
6342;SDS011;3204;42.698;23.298;2024-01-06T00:56:22;120.93;;;59.10;;
6342;SDS011;3204;42.698;23.298;2024-01-06T00:58:47;123.07;;;59.37;;
6342;SDS011;3204;42.698;23.298;2024-01-06T01:01:12;119.80;;;59.23;;
6342;SDS011;3204;42.698;23.298;2024-01-06T01:03:38;110.97;;;56.10;;
6342;SDS011;3204;42.698;23.298;2024-01-06T01:06:03;113.07;;;55.20;;
6342;SDS011;3204;42.698;23.298;2024-01-06T01:08:29;104.23;;;53.53;;
6342;SDS011;3204;42.698;23.298;2024-01-06T01:10:55;112.33;;;55.07;;
6342;SDS011;3204;42.698;23.298;2024-01-06T01:13:22;108.03;;;53.70;;
6342;SDS011;3204;42.698;23.298;2024-01-06T01:15:47;109.90;;;54.53;;
6342;SDS011;3204;42.698;23.298;2024-01-06T01:18:13;118.67;;;57.23;;
6342;SDS011;3204;42.698;23.298;2024-01-06T01:20:39;176.27;;;70.97;;
6342;SDS011;3204;42.698;23.298;2024-01-06T01:23:06;147.47;;;61.13;;
6342;SDS011;3204;42.698;23.298;2024-01-06T01:25:32;122.63;;;59.27;;
6342;SDS011;3204;42.698;23.298;2024-01-06T01:27:57;117.70;;;56.97;;
6342;SDS011;3204;42.698;23.298;2024-01-06T01:30:23;135.33;;;60.30;;
6342;SDS011;3204;42.698;23.298;2024-01-06T01:32:48;118.27;;;55.83;;
6342;SDS011;3204;42.698;23.298;2024-01-06T01:35:13;114.57;;;55.13;;
6342;SDS011;3204;42.698;23.298;2024-01-06T01:37:39;116.83;;;56.97;;
6342;SDS011;3204;42.698;23.298;2024-01-06T01:40:05;128.03;;;59.17;;
6342;SDS011;3204;42.698;23.298;2024-01-06T01:42:31;119.17;;;55.83;;
6342;SDS011;3204;42.698;23.298;2024-01-06T01:44:56;113.97;;;57.47;;
6342;SDS011;3204;42.698;23.298;2024-01-06T01:47:21;114.80;;;55.17;;
6342;SDS011;3204;42.698;23.298;2024-01-06T01:49:47;111.30;;;53.73;;
6342;SDS011;3204;42.698;23.298;2024-01-06T01:52:13;107.80;;;53.60;;
6342;SDS011;3204;42.698;23.298;2024-01-06T01:54:40;110.23;;;54.03;;
6342;SDS011;3204;42.698;23.298;2024-01-06T01:57:06;110.93;;;53.73;;
6342;SDS011;3204;42.698;23.298;2024-01-06T01:59:31;107.80;;;53.00;;
6342;SDS011;3204;42.698;23.298;2024-01-06T02:01:58;107.27;;;53.03;;
6342;SDS011;3204;42.698;23.298;2024-01-06T02:04:24;114.43;;;54.37;;
6342;SDS011;3204;42.698;23.298;2024-01-06T02:06:50;103.13;;;52.90;;
6342;SDS011;3204;42.698;23.298;2024-01-06T02:09:15;106.97;;;54.67;;
6342;SDS011;3204;42.698;23.298;2024-01-06T02:11:40;101.67;;;52.17;;
6342;SDS011;3204;42.698;23.298;2024-01-06T02:14:06;103.07;;;51.47;;
6342;SDS011;3204;42.698;23.298;2024-01-06T02:16:31;98.73;;;50.23;;
6342;SDS011;3204;42.698;23.298;2024-01-06T02:18:57;98.90;;;49.70;;
6342;SDS011;3204;42.698;23.298;2024-01-06T02:21:23;99.33;;;49.63;;
6342;SDS011;3204;42.698;23.298;2024-01-06T02:23:49;100.83;;;50.53;;
6342;SDS011;3204;42.698;23.298;2024-01-06T02:26:14;91.23;;;49.67;;
6342;SDS011;3204;42.698;23.298;2024-01-06T02:28:40;105.80;;;48.90;;
6342;SDS011;3204;42.698;23.298;2024-01-06T02:31:06;98.03;;;49.30;;
6342;SDS011;3204;42.698;23.298;2024-01-06T02:33:31;91.60;;;48.80;;
6342;SDS011;3204;42.698;23.298;2024-01-06T02:35:57;100.07;;;47.33;;
6342;SDS011;3204;42.698;23.298;2024-01-06T02:38:22;82.13;;;44.30;;
6342;SDS011;3204;42.698;23.298;2024-01-06T02:40:48;83.03;;;43.47;;
6342;SDS011;3204;42.698;23.298;2024-01-06T02:43:13;90.83;;;46.20;;
6342;SDS011;3204;42.698;23.298;2024-01-06T02:45:38;91.53;;;48.53;;
6342;SDS011;3204;42.698;23.298;2024-01-06T02:48:04;96.50;;;48.40;;
6342;SDS011;3204;42.698;23.298;2024-01-06T02:50:29;93.80;;;46.13;;
6342;SDS011;3204;42.698;23.298;2024-01-06T02:52:55;93.40;;;42.40;;
6342;SDS011;3204;42.698;23.298;2024-01-06T02:55:20;83.00;;;42.03;;
6342;SDS011;3204;42.698;23.298;2024-01-06T02:57:46;87.27;;;42.57;;
6342;SDS011;3204;42.698;23.298;2024-01-06T03:00:11;77.77;;;42.27;;
6342;SDS011;3204;42.698;23.298;2024-01-06T03:02:38;86.47;;;45.50;;
6342;SDS011;3204;42.698;23.298;2024-01-06T03:05:06;86.33;;;43.47;;
6342;SDS011;3204;42.698;23.298;2024-01-06T03:07:33;84.57;;;45.47;;
6342;SDS011;3204;42.698;23.298;2024-01-06T03:09:58;91.03;;;44.77;;
6342;SDS011;3204;42.698;23.298;2024-01-06T03:12:23;90.63;;;42.17;;
6342;SDS011;3204;42.698;23.298;2024-01-06T03:14:49;79.80;;;41.93;;
6342;SDS011;3204;42.698;23.298;2024-01-06T03:17:14;90.77;;;45.20;;
6342;SDS011;3204;42.698;23.298;2024-01-06T03:19:39;95.37;;;49.10;;
6342;SDS011;3204;42.698;23.298;2024-01-06T03:22:05;108.00;;;53.37;;
6342;SDS011;3204;42.698;23.298;2024-01-06T03:24:30;97.70;;;50.63;;
6342;SDS011;3204;42.698;23.298;2024-01-06T03:26:56;97.17;;;51.47;;
6342;SDS011;3204;42.698;23.298;2024-01-06T03:29:21;123.90;;;60.60;;
6342;SDS011;3204;42.698;23.298;2024-01-06T03:31:47;101.57;;;51.40;;
6342;SDS011;3204;42.698;23.298;2024-01-06T03:34:12;97.13;;;48.97;;
6342;SDS011;3204;42.698;23.298;2024-01-06T03:36:38;94.60;;;46.30;;
6342;SDS011;3204;42.698;23.298;2024-01-06T03:39:04;81.40;;;42.97;;
6342;SDS011;3204;42.698;23.298;2024-01-06T03:41:30;80.93;;;40.17;;
6342;SDS011;3204;42.698;23.298;2024-01-06T03:43:55;75.40;;;40.17;;
6342;SDS011;3204;42.698;23.298;2024-01-06T03:46:21;83.43;;;43.70;;
6342;SDS011;3204;42.698;23.298;2024-01-06T03:48:47;92.23;;;43.70;;
6342;SDS011;3204;42.698;23.298;2024-01-06T03:51:12;86.63;;;42.20;;
6342;SDS011;3204;42.698;23.298;2024-01-06T03:53:38;78.87;;;41.50;;
6342;SDS011;3204;42.698;23.298;2024-01-06T03:56:05;75.50;;;40.37;;
6342;SDS011;3204;42.698;23.298;2024-01-06T03:58:30;81.13;;;39.30;;
6342;SDS011;3204;42.698;23.298;2024-01-06T04:00:56;75.73;;;39.57;;
6342;SDS011;3204;42.698;23.298;2024-01-06T04:03:21;79.33;;;41.23;;
6342;SDS011;3204;42.698;23.298;2024-01-06T04:05:47;81.23;;;40.13;;
6342;SDS011;3204;42.698;23.298;2024-01-06T04:08:12;79.00;;;40.67;;
6342;SDS011;3204;42.698;23.298;2024-01-06T04:10:37;80.77;;;41.13;;
6342;SDS011;3204;42.698;23.298;2024-01-06T04:13:03;76.37;;;38.97;;
6342;SDS011;3204;42.698;23.298;2024-01-06T04:15:29;70.63;;;39.57;;
6342;SDS011;3204;42.698;23.298;2024-01-06T04:17:54;70.63;;;39.07;;
6342;SDS011;3204;42.698;23.298;2024-01-06T04:20:21;85.90;;;42.53;;
6342;SDS011;3204;42.698;23.298;2024-01-06T04:22:47;77.10;;;39.50;;
6342;SDS011;3204;42.698;23.298;2024-01-06T04:25:12;81.27;;;39.50;;
6342;SDS011;3204;42.698;23.298;2024-01-06T04:27:38;71.50;;;40.70;;
6342;SDS011;3204;42.698;23.298;2024-01-06T04:30:03;89.63;;;44.03;;
6342;SDS011;3204;42.698;23.298;2024-01-06T04:32:29;74.10;;;40.63;;
6342;SDS011;3204;42.698;23.298;2024-01-06T04:34:54;81.27;;;40.57;;
6342;SDS011;3204;42.698;23.298;2024-01-06T04:37:21;69.43;;;37.37;;
6342;SDS011;3204;42.698;23.298;2024-01-06T04:39:47;63.17;;;34.33;;
6342;SDS011;3204;42.698;23.298;2024-01-06T04:42:12;69.50;;;38.03;;
6342;SDS011;3204;42.698;23.298;2024-01-06T04:44:38;74.97;;;37.57;;
6342;SDS011;3204;42.698;23.298;2024-01-06T04:47:03;68.70;;;36.27;;
6342;SDS011;3204;42.698;23.298;2024-01-06T04:49:28;71.77;;;38.40;;
6342;SDS011;3204;42.698;23.298;2024-01-06T04:51:54;73.03;;;37.70;;
6342;SDS011;3204;42.698;23.298;2024-01-06T04:54:20;75.83;;;40.03;;
6342;SDS011;3204;42.698;23.298;2024-01-06T04:56:46;80.00;;;40.07;;
6342;SDS011;3204;42.698;23.298;2024-01-06T04:59:11;77.63;;;40.30;;
6342;SDS011;3204;42.698;23.298;2024-01-06T05:01:37;81.43;;;39.57;;
6342;SDS011;3204;42.698;23.298;2024-01-06T05:04:02;73.20;;;38.87;;
6342;SDS011;3204;42.698;23.298;2024-01-06T05:06:28;71.00;;;39.57;;
6342;SDS011;3204;42.698;23.298;2024-01-06T05:08:53;73.87;;;40.40;;
6342;SDS011;3204;42.698;23.298;2024-01-06T05:11:19;77.53;;;40.10;;
6342;SDS011;3204;42.698;23.298;2024-01-06T05:13:44;76.23;;;39.90;;
6342;SDS011;3204;42.698;23.298;2024-01-06T05:16:09;80.60;;;40.73;;
6342;SDS011;3204;42.698;23.298;2024-01-06T05:18:35;70.50;;;39.63;;
6342;SDS011;3204;42.698;23.298;2024-01-06T05:21:00;72.50;;;40.73;;
6342;SDS011;3204;42.698;23.298;2024-01-06T05:23:27;76.63;;;40.97;;
6342;SDS011;3204;42.698;23.298;2024-01-06T05:25:52;82.47;;;41.20;;
6342;SDS011;3204;42.698;23.298;2024-01-06T05:28:17;74.43;;;39.93;;
6342;SDS011;3204;42.698;23.298;2024-01-06T05:30:43;77.60;;;40.07;;
6342;SDS011;3204;42.698;23.298;2024-01-06T05:33:12;75.37;;;40.37;;
6342;SDS011;3204;42.698;23.298;2024-01-06T05:35:41;71.00;;;39.47;;
6342;SDS011;3204;42.698;23.298;2024-01-06T05:38:06;55.40;;;33.63;;
6342;SDS011;3204;42.698;23.298;2024-01-06T05:40:32;66.30;;;36.23;;
6342;SDS011;3204;42.698;23.298;2024-01-06T05:42:57;71.93;;;36.53;;
6342;SDS011;3204;42.698;23.298;2024-01-06T05:45:23;71.20;;;37.77;;
6342;SDS011;3204;42.698;23.298;2024-01-06T05:47:48;76.43;;;37.23;;
6342;SDS011;3204;42.698;23.298;2024-01-06T05:50:17;69.30;;;34.83;;
6342;SDS011;3204;42.698;23.298;2024-01-06T05:52:42;48.13;;;30.77;;
6342;SDS011;3204;42.698;23.298;2024-01-06T05:55:08;58.33;;;32.73;;
6342;SDS011;3204;42.698;23.298;2024-01-06T05:57:34;23.27;;;16.03;;
6342;SDS011;3204;42.698;23.298;2024-01-06T05:59:59;23.63;;;15.50;;
6342;SDS011;3204;42.698;23.298;2024-01-06T06:02:25;17.93;;;12.43;;
6342;SDS011;3204;42.698;23.298;2024-01-06T06:04:51;12.67;;;10.37;;
6342;SDS011;3204;42.698;23.298;2024-01-06T06:07:17;15.97;;;10.57;;
6342;SDS011;3204;42.698;23.298;2024-01-06T06:09:42;14.53;;;11.90;;
6342;SDS011;3204;42.698;23.298;2024-01-06T06:12:08;17.97;;;12.70;;
6342;SDS011;3204;42.698;23.298;2024-01-06T06:14:33;15.60;;;12.13;;
6342;SDS011;3204;42.698;23.298;2024-01-06T06:16:59;24.00;;;15.10;;
6342;SDS011;3204;42.698;23.298;2024-01-06T06:19:24;45.37;;;19.00;;
6342;SDS011;3204;42.698;23.298;2024-01-06T06:21:50;28.73;;;16.97;;
6342;SDS011;3204;42.698;23.298;2024-01-06T06:24:15;27.73;;;17.57;;
6342;SDS011;3204;42.698;23.298;2024-01-06T06:26:40;28.57;;;18.43;;
6342;SDS011;3204;42.698;23.298;2024-01-06T06:29:06;35.87;;;21.00;;
6342;SDS011;3204;42.698;23.298;2024-01-06T06:31:31;47.20;;;22.73;;
6342;SDS011;3204;42.698;23.298;2024-01-06T06:33:56;38.73;;;18.87;;
6342;SDS011;3204;42.698;23.298;2024-01-06T06:36:22;33.83;;;20.17;;
6342;SDS011;3204;42.698;23.298;2024-01-06T06:38:47;34.43;;;22.30;;
6342;SDS011;3204;42.698;23.298;2024-01-06T06:41:13;41.20;;;21.10;;
6342;SDS011;3204;42.698;23.298;2024-01-06T06:43:38;36.23;;;20.20;;
6342;SDS011;3204;42.698;23.298;2024-01-06T06:46:03;41.50;;;20.33;;
6342;SDS011;3204;42.698;23.298;2024-01-06T06:48:29;30.33;;;18.13;;
6342;SDS011;3204;42.698;23.298;2024-01-06T06:50:54;31.70;;;17.77;;
6342;SDS011;3204;42.698;23.298;2024-01-06T06:53:20;29.43;;;18.07;;
6342;SDS011;3204;42.698;23.298;2024-01-06T06:55:46;26.70;;;17.73;;
6342;SDS011;3204;42.698;23.298;2024-01-06T06:58:12;42.13;;;19.63;;
6342;SDS011;3204;42.698;23.298;2024-01-06T07:00:37;46.43;;;22.43;;
6342;SDS011;3204;42.698;23.298;2024-01-06T07:03:04;39.40;;;22.90;;
6342;SDS011;3204;42.698;23.298;2024-01-06T07:05:29;32.67;;;20.00;;
6342;SDS011;3204;42.698;23.298;2024-01-06T07:07:55;41.03;;;21.10;;
6342;SDS011;3204;42.698;23.298;2024-01-06T07:10:20;44.00;;;20.87;;
6342;SDS011;3204;42.698;23.298;2024-01-06T07:12:46;38.70;;;21.50;;
6342;SDS011;3204;42.698;23.298;2024-01-06T07:15:11;45.30;;;23.07;;
6342;SDS011;3204;42.698;23.298;2024-01-06T07:17:37;35.27;;;21.50;;
6342;SDS011;3204;42.698;23.298;2024-01-06T07:20:03;42.00;;;22.07;;
6342;SDS011;3204;42.698;23.298;2024-01-06T07:22:32;42.83;;;21.40;;
6342;SDS011;3204;42.698;23.298;2024-01-06T07:24:59;38.33;;;21.37;;
6342;SDS011;3204;42.698;23.298;2024-01-06T07:27:24;43.23;;;19.50;;
6342;SDS011;3204;42.698;23.298;2024-01-06T07:29:50;31.23;;;18.40;;
6342;SDS011;3204;42.698;23.298;2024-01-06T07:32:15;36.63;;;21.53;;
6342;SDS011;3204;42.698;23.298;2024-01-06T07:34:40;36.07;;;21.03;;
6342;SDS011;3204;42.698;23.298;2024-01-06T07:37:06;30.03;;;19.70;;
6342;SDS011;3204;42.698;23.298;2024-01-06T07:39:31;36.43;;;19.63;;
6342;SDS011;3204;42.698;23.298;2024-01-06T07:41:57;29.73;;;18.30;;
6342;SDS011;3204;42.698;23.298;2024-01-06T07:44:22;33.07;;;19.40;;
6342;SDS011;3204;42.698;23.298;2024-01-06T07:46:50;32.60;;;19.23;;
6342;SDS011;3204;42.698;23.298;2024-01-06T07:49:16;27.00;;;19.03;;
6342;SDS011;3204;42.698;23.298;2024-01-06T07:51:41;38.97;;;20.23;;
6342;SDS011;3204;42.698;23.298;2024-01-06T07:54:07;50.27;;;21.43;;
6342;SDS011;3204;42.698;23.298;2024-01-06T07:56:34;35.27;;;19.00;;
6342;SDS011;3204;42.698;23.298;2024-01-06T07:58:59;39.53;;;19.80;;
6342;SDS011;3204;42.698;23.298;2024-01-06T08:01:26;34.10;;;19.40;;
6342;SDS011;3204;42.698;23.298;2024-01-06T08:03:51;33.73;;;19.33;;
6342;SDS011;3204;42.698;23.298;2024-01-06T08:06:16;37.60;;;18.53;;
6342;SDS011;3204;42.698;23.298;2024-01-06T08:08:42;33.87;;;19.30;;
6342;SDS011;3204;42.698;23.298;2024-01-06T08:11:07;34.00;;;18.80;;
6342;SDS011;3204;42.698;23.298;2024-01-06T08:13:33;39.23;;;18.97;;
6342;SDS011;3204;42.698;23.298;2024-01-06T08:15:58;37.00;;;21.40;;
6342;SDS011;3204;42.698;23.298;2024-01-06T08:18:24;44.30;;;23.00;;
6342;SDS011;3204;42.698;23.298;2024-01-06T08:20:49;55.27;;;28.27;;
6342;SDS011;3204;42.698;23.298;2024-01-06T08:23:15;63.90;;;34.10;;
6342;SDS011;3204;42.698;23.298;2024-01-06T08:25:41;67.00;;;37.80;;
6342;SDS011;3204;42.698;23.298;2024-01-06T08:28:06;76.90;;;38.60;;
6342;SDS011;3204;42.698;23.298;2024-01-06T08:30:32;86.30;;;39.23;;
6342;SDS011;3204;42.698;23.298;2024-01-06T08:32:57;81.20;;;41.17;;
6342;SDS011;3204;42.698;23.298;2024-01-06T08:35:24;76.80;;;41.83;;
6342;SDS011;3204;42.698;23.298;2024-01-06T08:37:49;73.47;;;41.00;;
6342;SDS011;3204;42.698;23.298;2024-01-06T08:40:15;73.80;;;38.90;;
6342;SDS011;3204;42.698;23.298;2024-01-06T08:42:41;69.37;;;40.93;;
6342;SDS011;3204;42.698;23.298;2024-01-06T08:45:06;71.40;;;38.47;;
6342;SDS011;3204;42.698;23.298;2024-01-06T08:47:32;67.17;;;39.90;;
6342;SDS011;3204;42.698;23.298;2024-01-06T08:49:57;78.47;;;39.47;;
6342;SDS011;3204;42.698;23.298;2024-01-06T08:52:23;64.63;;;35.30;;
6342;SDS011;3204;42.698;23.298;2024-01-06T08:54:48;63.97;;;34.77;;
6342;SDS011;3204;42.698;23.298;2024-01-06T08:57:14;59.17;;;32.93;;
6342;SDS011;3204;42.698;23.298;2024-01-06T08:59:40;53.23;;;33.07;;
6342;SDS011;3204;42.698;23.298;2024-01-06T09:02:05;61.07;;;35.03;;
6342;SDS011;3204;42.698;23.298;2024-01-06T09:04:30;66.37;;;34.57;;
6342;SDS011;3204;42.698;23.298;2024-01-06T09:06:56;65.97;;;35.70;;
6342;SDS011;3204;42.698;23.298;2024-01-06T09:09:21;56.57;;;36.13;;
6342;SDS011;3204;42.698;23.298;2024-01-06T09:11:48;66.50;;;38.10;;
6342;SDS011;3204;42.698;23.298;2024-01-06T09:14:14;61.83;;;35.67;;
6342;SDS011;3204;42.698;23.298;2024-01-06T09:16:39;57.07;;;31.93;;
6342;SDS011;3204;42.698;23.298;2024-01-06T09:19:05;48.30;;;29.53;;
6342;SDS011;3204;42.698;23.298;2024-01-06T09:21:30;63.87;;;31.40;;
6342;SDS011;3204;42.698;23.298;2024-01-06T09:23:55;54.47;;;32.13;;
6342;SDS011;3204;42.698;23.298;2024-01-06T09:26:21;48.00;;;28.37;;
6342;SDS011;3204;42.698;23.298;2024-01-06T09:28:47;45.27;;;26.40;;
6342;SDS011;3204;42.698;23.298;2024-01-06T09:31:12;38.67;;;22.97;;
6342;SDS011;3204;42.698;23.298;2024-01-06T09:33:38;36.50;;;23.07;;
6342;SDS011;3204;42.698;23.298;2024-01-06T09:36:04;36.27;;;23.50;;
6342;SDS011;3204;42.698;23.298;2024-01-06T09:38:30;48.17;;;24.90;;
6342;SDS011;3204;42.698;23.298;2024-01-06T09:40:55;41.67;;;25.57;;
6342;SDS011;3204;42.698;23.298;2024-01-06T09:43:23;36.43;;;22.77;;
6342;SDS011;3204;42.698;23.298;2024-01-06T09:45:51;38.27;;;22.77;;
6342;SDS011;3204;42.698;23.298;2024-01-06T09:48:23;19.37;;;13.47;;
6342;SDS011;3204;42.698;23.298;2024-01-06T09:50:54;23.13;;;14.57;;
6342;SDS011;3204;42.698;23.298;2024-01-06T09:53:22;24.23;;;14.20;;
6342;SDS011;3204;42.698;23.298;2024-01-06T09:55:54;32.37;;;15.43;;
6342;SDS011;3204;42.698;23.298;2024-01-06T09:58:20;23.38;;;15.35;;
6342;SDS011;3204;42.698;23.298;2024-01-06T10:00:47;21.05;;;15.13;;
6342;SDS011;3204;42.698;23.298;2024-01-06T10:03:14;23.20;;;15.43;;
6342;SDS011;3204;42.698;23.298;2024-01-06T10:05:40;27.40;;;16.35;;
6342;SDS011;3204;42.698;23.298;2024-01-06T10:08:05;29.25;;;18.13;;
6342;SDS011;3204;42.698;23.298;2024-01-06T10:10:32;32.97;;;18.17;;
6342;SDS011;3204;42.698;23.298;2024-01-06T10:12:59;29.70;;;18.65;;
6342;SDS011;3204;42.698;23.298;2024-01-06T10:15:24;40.47;;;19.90;;
6342;SDS011;3204;42.698;23.298;2024-01-06T10:17:50;38.10;;;20.17;;
6342;SDS011;3204;42.698;23.298;2024-01-06T10:20:19;31.23;;;19.63;;
6342;SDS011;3204;42.698;23.298;2024-01-06T10:22:45;36.80;;;20.13;;
6342;SDS011;3204;42.698;23.298;2024-01-06T10:25:11;35.58;;;19.58;;
6342;SDS011;3204;42.698;23.298;2024-01-06T10:27:39;35.70;;;20.17;;
6342;SDS011;3204;42.698;23.298;2024-01-06T10:30:06;29.85;;;18.88;;
6342;SDS011;3204;42.698;23.298;2024-01-06T10:32:32;35.83;;;21.13;;
6342;SDS011;3204;42.698;23.298;2024-01-06T10:34:59;34.13;;;19.27;;
6342;SDS011;3204;42.698;23.298;2024-01-06T10:37:26;29.20;;;18.30;;
6342;SDS011;3204;42.698;23.298;2024-01-06T10:42:50;28.80;;;17.47;;
6342;SDS011;3204;42.698;23.298;2024-01-06T10:45:17;28.83;;;17.90;;
6342;SDS011;3204;42.698;23.298;2024-01-06T10:47:43;22.03;;;14.40;;
6342;SDS011;3204;42.698;23.298;2024-01-06T10:50:09;24.70;;;13.67;;
6342;SDS011;3204;42.698;23.298;2024-01-06T10:52:35;19.40;;;11.87;;
6342;SDS011;3204;42.698;23.298;2024-01-06T10:55:02;13.10;;;9.73;;
6342;SDS011;3204;42.698;23.298;2024-01-06T10:57:29;14.43;;;10.93;;
6342;SDS011;3204;42.698;23.298;2024-01-06T10:59:57;13.73;;;11.07;;
6342;SDS011;3204;42.698;23.298;2024-01-06T11:02:24;18.53;;;11.57;;
6342;SDS011;3204;42.698;23.298;2024-01-06T11:04:50;12.07;;;8.93;;
6342;SDS011;3204;42.698;23.298;2024-01-06T11:07:20;13.10;;;9.23;;
6342;SDS011;3204;42.698;23.298;2024-01-06T11:09:52;14.77;;;10.17;;
6342;SDS011;3204;42.698;23.298;2024-01-06T11:12:18;13.93;;;10.33;;
6342;SDS011;3204;42.698;23.298;2024-01-06T11:14:44;16.13;;;11.13;;
6342;SDS011;3204;42.698;23.298;2024-01-06T11:17:10;13.73;;;11.00;;
6342;SDS011;3204;42.698;23.298;2024-01-06T11:24:51;14.47;;;11.27;;
6342;SDS011;3204;42.698;23.298;2024-01-06T11:27:25;19.17;;;11.97;;
6342;SDS011;3204;42.698;23.298;2024-01-06T11:29:54;18.27;;;12.23;;
6342;SDS011;3204;42.698;23.298;2024-01-06T11:34:50;17.47;;;11.47;;
6342;SDS011;3204;42.698;23.298;2024-01-06T11:37:18;18.37;;;11.73;;
6342;SDS011;3204;42.698;23.298;2024-01-06T11:39:48;22.00;;;13.60;;
6342;SDS011;3204;42.698;23.298;2024-01-06T11:42:15;17.40;;;12.33;;
6342;SDS011;3204;42.698;23.298;2024-01-06T11:44:43;23.40;;;13.33;;
6342;SDS011;3204;42.698;23.298;2024-01-06T11:47:11;19.17;;;13.13;;
6342;SDS011;3204;42.698;23.298;2024-01-06T11:49:37;21.57;;;13.70;;
6342;SDS011;3204;42.698;23.298;2024-01-06T11:52:03;18.10;;;13.13;;
6342;SDS011;3204;42.698;23.298;2024-01-06T11:54:28;14.80;;;12.77;;
6342;SDS011;3204;42.698;23.298;2024-01-06T11:56:54;16.80;;;13.37;;
6342;SDS011;3204;42.698;23.298;2024-01-06T11:59:21;19.77;;;14.33;;
6342;SDS011;3204;42.698;23.298;2024-01-06T12:01:46;22.23;;;14.30;;
6342;SDS011;3204;42.698;23.298;2024-01-06T12:04:15;15.17;;;11.57;;
6342;SDS011;3204;42.698;23.298;2024-01-06T12:06:40;17.63;;;12.37;;
6342;SDS011;3204;42.698;23.298;2024-01-06T12:09:07;17.33;;;11.53;;
6342;SDS011;3204;42.698;23.298;2024-01-06T12:11:35;12.97;;;10.90;;
6342;SDS011;3204;42.698;23.298;2024-01-06T12:14:02;11.95;;;10.70;;
6342;SDS011;3204;42.698;23.298;2024-01-06T12:16:27;17.23;;;13.03;;
6342;SDS011;3204;42.698;23.298;2024-01-06T12:18:54;19.37;;;12.37;;
6342;SDS011;3204;42.698;23.298;2024-01-06T12:21:23;20.38;;;11.07;;
6342;SDS011;3204;42.698;23.298;2024-01-06T12:23:49;16.40;;;11.80;;
6342;SDS011;3204;42.698;23.298;2024-01-06T12:26:16;18.02;;;11.80;;
6342;SDS011;3204;42.698;23.298;2024-01-06T12:28:44;14.32;;;12.10;;
6342;SDS011;3204;42.698;23.298;2024-01-06T12:31:12;16.08;;;10.85;;
6342;SDS011;3204;42.698;23.298;2024-01-06T12:33:41;18.37;;;10.70;;
6342;SDS011;3204;42.698;23.298;2024-01-06T12:36:07;16.45;;;10.70;;
6342;SDS011;3204;42.698;23.298;2024-01-06T12:38:36;11.93;;;10.70;;
6342;SDS011;3204;42.698;23.298;2024-01-06T12:41:03;11.90;;;10.63;;
6342;SDS011;3204;42.698;23.298;2024-01-06T12:43:29;15.02;;;10.20;;
6342;SDS011;3204;42.698;23.298;2024-01-06T12:45:54;10.00;;;9.10;;
6342;SDS011;3204;42.698;23.298;2024-01-06T12:48:22;15.60;;;9.37;;
6342;SDS011;3204;42.698;23.298;2024-01-06T12:50:47;10.07;;;9.18;;
6342;SDS011;3204;42.698;23.298;2024-01-06T12:53:13;14.60;;;10.10;;
6342;SDS011;3204;42.698;23.298;2024-01-06T12:55:40;10.98;;;9.88;;
6342;SDS011;3204;42.698;23.298;2024-01-06T12:58:06;10.50;;;9.33;;
6342;SDS011;3204;42.698;23.298;2024-01-06T13:00:33;12.57;;;10.00;;
6342;SDS011;3204;42.698;23.298;2024-01-06T13:02:59;13.15;;;9.90;;
6342;SDS011;3204;42.698;23.298;2024-01-06T13:05:24;13.37;;;9.60;;
6342;SDS011;3204;42.698;23.298;2024-01-06T13:07:50;8.90;;;8.00;;
6342;SDS011;3204;42.698;23.298;2024-01-06T13:10:15;14.55;;;8.95;;
6342;SDS011;3204;42.698;23.298;2024-01-06T13:12:41;9.75;;;8.68;;
6342;SDS011;3204;42.698;23.298;2024-01-06T13:15:06;9.75;;;8.70;;
6342;SDS011;3204;42.698;23.298;2024-01-06T13:17:36;10.57;;;8.85;;
6342;SDS011;3204;42.698;23.298;2024-01-06T13:20:02;9.98;;;8.02;;
6342;SDS011;3204;42.698;23.298;2024-01-06T13:22:28;9.70;;;7.97;;
6342;SDS011;3204;42.698;23.298;2024-01-06T13:24:53;8.50;;;7.68;;
6342;SDS011;3204;42.698;23.298;2024-01-06T13:27:19;10.57;;;8.73;;
6342;SDS011;3204;42.698;23.298;2024-01-06T13:29:44;11.75;;;10.02;;
6342;SDS011;3204;42.698;23.298;2024-01-06T13:32:10;9.38;;;7.97;;
6342;SDS011;3204;42.698;23.298;2024-01-06T13:34:36;8.77;;;7.97;;
6342;SDS011;3204;42.698;23.298;2024-01-06T13:37:01;10.32;;;8.38;;
6342;SDS011;3204;42.698;23.298;2024-01-06T13:39:27;11.02;;;9.05;;
6342;SDS011;3204;42.698;23.298;2024-01-06T13:41:52;9.18;;;8.25;;
6342;SDS011;3204;42.698;23.298;2024-01-06T13:44:18;8.95;;;8.10;;
6342;SDS011;3204;42.698;23.298;2024-01-06T13:46:43;9.70;;;8.80;;
6342;SDS011;3204;42.698;23.298;2024-01-06T13:49:12;12.20;;;8.57;;
6342;SDS011;3204;42.698;23.298;2024-01-06T13:51:41;12.75;;;9.15;;
6342;SDS011;3204;42.698;23.298;2024-01-06T13:54:06;15.45;;;9.45;;
6342;SDS011;3204;42.698;23.298;2024-01-06T13:56:32;13.70;;;9.40;;
6342;SDS011;3204;42.698;23.298;2024-01-06T13:58:58;13.02;;;10.07;;
6342;SDS011;3204;42.698;23.298;2024-01-06T14:01:24;13.25;;;10.25;;
6342;SDS011;3204;42.698;23.298;2024-01-06T14:03:50;11.10;;;9.85;;
6342;SDS011;3204;42.698;23.298;2024-01-06T14:06:16;16.67;;;10.38;;
6342;SDS011;3204;42.698;23.298;2024-01-06T14:08:42;16.08;;;10.52;;
6342;SDS011;3204;42.698;23.298;2024-01-06T14:11:08;18.92;;;10.38;;
6342;SDS011;3204;42.698;23.298;2024-01-06T14:13:34;13.82;;;10.27;;
6342;SDS011;3204;42.698;23.298;2024-01-06T14:15:59;11.15;;;9.95;;
6342;SDS011;3204;42.698;23.298;2024-01-06T14:18:25;12.63;;;9.63;;
6342;SDS011;3204;42.698;23.298;2024-01-06T14:20:52;12.80;;;10.63;;
6342;SDS011;3204;42.698;23.298;2024-01-06T14:23:20;11.80;;;9.68;;
6342;SDS011;3204;42.698;23.298;2024-01-06T14:25:45;15.70;;;10.15;;
6342;SDS011;3204;42.698;23.298;2024-01-06T14:28:10;17.50;;;9.48;;
6342;SDS011;3204;42.698;23.298;2024-01-06T14:30:36;16.73;;;10.65;;
6342;SDS011;3204;42.698;23.298;2024-01-06T14:33:02;14.15;;;10.63;;
6342;SDS011;3204;42.698;23.298;2024-01-06T14:35:27;12.80;;;9.70;;